sensor_id;sensor_type;location;lat;lon;timestamp;temperature;humidity
3648;DHT22;1840;48.892;15.312;2023-06-22T00:00:55;17.50;99.90
3648;DHT22;1840;48.892;15.312;2023-06-22T00:03:24;17.50;99.90
3648;DHT22;1840;48.892;15.312;2023-06-22T00:05:53;17.40;99.90
3648;DHT22;1840;48.892;15.312;2023-06-22T00:08:21;17.30;99.90
3648;DHT22;1840;48.892;15.312;2023-06-22T00:10:50;17.30;99.90
3648;DHT22;1840;48.892;15.312;2023-06-22T00:13:18;17.20;99.90
3648;DHT22;1840;48.892;15.312;2023-06-22T00:15:46;17.10;99.90
3648;DHT22;1840;48.892;15.312;2023-06-22T00:18:15;17.00;99.90
3648;DHT22;1840;48.892;15.312;2023-06-22T00:20:43;16.90;99.90
3648;DHT22;1840;48.892;15.312;2023-06-22T00:23:12;16.80;99.90
3648;DHT22;1840;48.892;15.312;2023-06-22T00:25:44;16.80;99.90
3648;DHT22;1840;48.892;15.312;2023-06-22T00:28:13;16.70;99.90
3648;DHT22;1840;48.892;15.312;2023-06-22T00:30:41;16.70;99.90
3648;DHT22;1840;48.892;15.312;2023-06-22T00:33:09;16.60;99.90
3648;DHT22;1840;48.892;15.312;2023-06-22T00:35:37;16.50;99.90
3648;DHT22;1840;48.892;15.312;2023-06-22T00:38:08;16.50;99.90
3648;DHT22;1840;48.892;15.312;2023-06-22T00:40:36;16.40;99.90
3648;DHT22;1840;48.892;15.312;2023-06-22T00:43:05;16.40;99.90
3648;DHT22;1840;48.892;15.312;2023-06-22T00:45:35;16.50;99.90
3648;DHT22;1840;48.892;15.312;2023-06-22T00:48:03;16.50;99.90
3648;DHT22;1840;48.892;15.312;2023-06-22T00:50:32;16.50;99.90
3648;DHT22;1840;48.892;15.312;2023-06-22T00:53:03;16.50;99.90
3648;DHT22;1840;48.892;15.312;2023-06-22T00:55:36;16.30;99.90
3648;DHT22;1840;48.892;15.312;2023-06-22T00:58:06;16.30;99.90
3648;DHT22;1840;48.892;15.312;2023-06-22T01:00:37;16.30;99.90
3648;DHT22;1840;48.892;15.312;2023-06-22T01:03:05;16.40;99.90
3648;DHT22;1840;48.892;15.312;2023-06-22T01:05:37;16.50;99.90
3648;DHT22;1840;48.892;15.312;2023-06-22T01:08:12;16.40;99.90
3648;DHT22;1840;48.892;15.312;2023-06-22T01:10:44;16.40;99.90
3648;DHT22;1840;48.892;15.312;2023-06-22T01:13:21;16.30;99.90
3648;DHT22;1840;48.892;15.312;2023-06-22T01:15:59;16.30;99.90
3648;DHT22;1840;48.892;15.312;2023-06-22T01:18:30;16.40;99.90
3648;DHT22;1840;48.892;15.312;2023-06-22T01:21:01;16.40;99.90
3648;DHT22;1840;48.892;15.312;2023-06-22T01:23:36;16.40;99.90
3648;DHT22;1840;48.892;15.312;2023-06-22T01:26:17;16.40;99.90
3648;DHT22;1840;48.892;15.312;2023-06-22T01:28:48;16.40;99.90
3648;DHT22;1840;48.892;15.312;2023-06-22T01:31:19;16.30;99.90
3648;DHT22;1840;48.892;15.312;2023-06-22T01:33:54;16.30;99.90
3648;DHT22;1840;48.892;15.312;2023-06-22T01:36:24;16.30;99.90
3648;DHT22;1840;48.892;15.312;2023-06-22T01:38:53;16.30;99.90
3648;DHT22;1840;48.892;15.312;2023-06-22T01:41:24;16.30;99.90
3648;DHT22;1840;48.892;15.312;2023-06-22T01:43:55;16.30;99.90
3648;DHT22;1840;48.892;15.312;2023-06-22T01:46:24;16.20;99.90
3648;DHT22;1840;48.892;15.312;2023-06-22T01:48:53;16.20;99.90
3648;DHT22;1840;48.892;15.312;2023-06-22T01:51:21;16.10;99.90
3648;DHT22;1840;48.892;15.312;2023-06-22T01:53:49;16.00;99.90
3648;DHT22;1840;48.892;15.312;2023-06-22T01:56:17;15.80;99.90
3648;DHT22;1840;48.892;15.312;2023-06-22T01:58:50;15.70;99.90
3648;DHT22;1840;48.892;15.312;2023-06-22T02:01:24;15.80;99.90
3648;DHT22;1840;48.892;15.312;2023-06-22T02:04:01;15.90;99.90
3648;DHT22;1840;48.892;15.312;2023-06-22T02:06:34;15.90;99.90
3648;DHT22;1840;48.892;15.312;2023-06-22T02:09:08;15.80;99.90
3648;DHT22;1840;48.892;15.312;2023-06-22T02:11:39;15.70;99.90
3648;DHT22;1840;48.892;15.312;2023-06-22T02:14:08;15.60;99.90
3648;DHT22;1840;48.892;15.312;2023-06-22T02:16:38;15.50;99.90
3648;DHT22;1840;48.892;15.312;2023-06-22T02:19:06;15.60;99.90
3648;DHT22;1840;48.892;15.312;2023-06-22T02:21:35;15.60;99.90
3648;DHT22;1840;48.892;15.312;2023-06-22T02:24:03;15.60;99.90
3648;DHT22;1840;48.892;15.312;2023-06-22T02:26:32;15.70;99.90
3648;DHT22;1840;48.892;15.312;2023-06-22T02:29:01;15.60;99.90
3648;DHT22;1840;48.892;15.312;2023-06-22T02:31:29;15.50;99.90
3648;DHT22;1840;48.892;15.312;2023-06-22T02:33:59;15.30;99.90
3648;DHT22;1840;48.892;15.312;2023-06-22T02:36:27;15.40;99.90
3648;DHT22;1840;48.892;15.312;2023-06-22T02:38:58;15.30;99.90
3648;DHT22;1840;48.892;15.312;2023-06-22T02:41:28;15.20;99.90
3648;DHT22;1840;48.892;15.312;2023-06-22T02:43:56;15.20;99.90
3648;DHT22;1840;48.892;15.312;2023-06-22T02:46:24;15.20;99.90
3648;DHT22;1840;48.892;15.312;2023-06-22T02:48:58;15.30;99.90
3648;DHT22;1840;48.892;15.312;2023-06-22T02:51:26;15.10;99.90
3648;DHT22;1840;48.892;15.312;2023-06-22T02:53:54;15.20;99.90
3648;DHT22;1840;48.892;15.312;2023-06-22T02:56:24;15.20;99.90
3648;DHT22;1840;48.892;15.312;2023-06-22T02:58:52;15.20;99.90
3648;DHT22;1840;48.892;15.312;2023-06-22T03:01:20;15.20;99.90
3648;DHT22;1840;48.892;15.312;2023-06-22T03:03:51;15.20;99.90
3648;DHT22;1840;48.892;15.312;2023-06-22T03:06:21;15.30;99.90
3648;DHT22;1840;48.892;15.312;2023-06-22T03:08:51;15.20;99.90
3648;DHT22;1840;48.892;15.312;2023-06-22T03:11:19;15.10;99.90
3648;DHT22;1840;48.892;15.312;2023-06-22T03:13:47;15.10;99.90
3648;DHT22;1840;48.892;15.312;2023-06-22T03:16:15;15.10;99.90
3648;DHT22;1840;48.892;15.312;2023-06-22T03:18:43;15.00;99.90
3648;DHT22;1840;48.892;15.312;2023-06-22T03:21:11;15.00;99.90
3648;DHT22;1840;48.892;15.312;2023-06-22T03:23:40;15.00;99.90
3648;DHT22;1840;48.892;15.312;2023-06-22T03:26:09;14.90;99.90
3648;DHT22;1840;48.892;15.312;2023-06-22T03:28:37;14.80;99.90
3648;DHT22;1840;48.892;15.312;2023-06-22T03:31:06;14.70;99.90
3648;DHT22;1840;48.892;15.312;2023-06-22T03:33:34;14.50;99.90
3648;DHT22;1840;48.892;15.312;2023-06-22T03:36:03;14.40;99.90
3648;DHT22;1840;48.892;15.312;2023-06-22T03:38:31;14.50;99.90
3648;DHT22;1840;48.892;15.312;2023-06-22T03:41:00;14.60;99.90
3648;DHT22;1840;48.892;15.312;2023-06-22T03:43:30;14.70;99.90
3648;DHT22;1840;48.892;15.312;2023-06-22T03:45:58;14.90;99.90
3648;DHT22;1840;48.892;15.312;2023-06-22T03:48:26;14.80;99.90
3648;DHT22;1840;48.892;15.312;2023-06-22T03:50:54;14.70;99.90
3648;DHT22;1840;48.892;15.312;2023-06-22T03:53:23;14.70;99.90
3648;DHT22;1840;48.892;15.312;2023-06-22T03:55:52;14.60;99.90
3648;DHT22;1840;48.892;15.312;2023-06-22T03:58:21;14.60;99.90
3648;DHT22;1840;48.892;15.312;2023-06-22T04:00:51;14.70;99.90
3648;DHT22;1840;48.892;15.312;2023-06-22T04:03:19;14.80;99.90
3648;DHT22;1840;48.892;15.312;2023-06-22T04:05:48;14.80;99.90
3648;DHT22;1840;48.892;15.312;2023-06-22T04:08:16;14.90;99.90
3648;DHT22;1840;48.892;15.312;2023-06-22T04:10:44;14.90;99.90
3648;DHT22;1840;48.892;15.312;2023-06-22T04:13:12;15.00;99.90
3648;DHT22;1840;48.892;15.312;2023-06-22T04:15:42;15.20;99.90
3648;DHT22;1840;48.892;15.312;2023-06-22T04:18:10;15.20;99.90
3648;DHT22;1840;48.892;15.312;2023-06-22T04:20:38;15.20;99.90
3648;DHT22;1840;48.892;15.312;2023-06-22T04:23:06;15.20;99.90
3648;DHT22;1840;48.892;15.312;2023-06-22T04:25:34;15.10;99.90
3648;DHT22;1840;48.892;15.312;2023-06-22T04:28:03;15.00;99.90
3648;DHT22;1840;48.892;15.312;2023-06-22T04:30:32;15.20;99.90
3648;DHT22;1840;48.892;15.312;2023-06-22T04:33:02;15.40;99.90
3648;DHT22;1840;48.892;15.312;2023-06-22T04:35:30;15.50;99.90
3648;DHT22;1840;48.892;15.312;2023-06-22T04:37:59;15.60;99.90
3648;DHT22;1840;48.892;15.312;2023-06-22T04:40:27;15.70;99.90
3648;DHT22;1840;48.892;15.312;2023-06-22T04:42:55;15.80;99.90
3648;DHT22;1840;48.892;15.312;2023-06-22T04:45:24;15.80;99.90
3648;DHT22;1840;48.892;15.312;2023-06-22T04:47:52;15.80;99.90
3648;DHT22;1840;48.892;15.312;2023-06-22T04:50:21;15.80;99.90
3648;DHT22;1840;48.892;15.312;2023-06-22T04:52:51;16.00;99.90
3648;DHT22;1840;48.892;15.312;2023-06-22T04:55:20;16.00;99.90
3648;DHT22;1840;48.892;15.312;2023-06-22T04:57:48;16.00;99.90
3648;DHT22;1840;48.892;15.312;2023-06-22T05:00:17;16.10;99.90
3648;DHT22;1840;48.892;15.312;2023-06-22T05:02:50;16.20;99.90
3648;DHT22;1840;48.892;15.312;2023-06-22T05:05:25;16.20;99.90
3648;DHT22;1840;48.892;15.312;2023-06-22T05:07:56;16.20;99.90
3648;DHT22;1840;48.892;15.312;2023-06-22T05:10:27;16.20;99.90
3648;DHT22;1840;48.892;15.312;2023-06-22T05:12:55;16.20;99.90
3648;DHT22;1840;48.892;15.312;2023-06-22T05:15:23;16.30;99.90
3648;DHT22;1840;48.892;15.312;2023-06-22T05:17:54;16.40;99.90
3648;DHT22;1840;48.892;15.312;2023-06-22T05:20:23;16.60;99.90
3648;DHT22;1840;48.892;15.312;2023-06-22T05:22:52;16.60;99.90
3648;DHT22;1840;48.892;15.312;2023-06-22T05:25:20;16.70;99.90
3648;DHT22;1840;48.892;15.312;2023-06-22T05:27:48;16.80;99.90
3648;DHT22;1840;48.892;15.312;2023-06-22T05:30:18;16.90;99.90
3648;DHT22;1840;48.892;15.312;2023-06-22T05:32:48;17.20;99.90
3648;DHT22;1840;48.892;15.312;2023-06-22T05:35:16;17.30;99.90
3648;DHT22;1840;48.892;15.312;2023-06-22T05:37:44;17.40;99.90
3648;DHT22;1840;48.892;15.312;2023-06-22T05:40:14;17.60;99.90
3648;DHT22;1840;48.892;15.312;2023-06-22T05:42:42;17.90;99.90
3648;DHT22;1840;48.892;15.312;2023-06-22T05:45:10;18.20;99.90
3648;DHT22;1840;48.892;15.312;2023-06-22T05:47:38;18.20;99.90
3648;DHT22;1840;48.892;15.312;2023-06-22T05:50:07;18.60;99.90
3648;DHT22;1840;48.892;15.312;2023-06-22T05:52:39;18.80;99.90
3648;DHT22;1840;48.892;15.312;2023-06-22T05:55:07;19.00;99.90
3648;DHT22;1840;48.892;15.312;2023-06-22T05:57:37;19.20;99.90
3648;DHT22;1840;48.892;15.312;2023-06-22T06:00:06;19.30;99.90
3648;DHT22;1840;48.892;15.312;2023-06-22T06:02:37;19.60;99.90
3648;DHT22;1840;48.892;15.312;2023-06-22T06:05:11;19.90;99.90
3648;DHT22;1840;48.892;15.312;2023-06-22T06:07:40;20.10;99.90
3648;DHT22;1840;48.892;15.312;2023-06-22T06:10:09;20.20;99.90
3648;DHT22;1840;48.892;15.312;2023-06-22T06:12:38;20.40;99.90
3648;DHT22;1840;48.892;15.312;2023-06-22T06:15:07;20.40;99.90
3648;DHT22;1840;48.892;15.312;2023-06-22T06:17:45;20.50;99.90
3648;DHT22;1840;48.892;15.312;2023-06-22T06:20:14;20.40;99.90
3648;DHT22;1840;48.892;15.312;2023-06-22T06:22:42;20.40;99.90
3648;DHT22;1840;48.892;15.312;2023-06-22T06:25:12;20.40;99.90
3648;DHT22;1840;48.892;15.312;2023-06-22T06:27:45;20.60;99.90
3648;DHT22;1840;48.892;15.312;2023-06-22T06:30:14;20.60;99.90
3648;DHT22;1840;48.892;15.312;2023-06-22T06:32:44;20.70;99.90
3648;DHT22;1840;48.892;15.312;2023-06-22T06:35:14;20.90;99.90
3648;DHT22;1840;48.892;15.312;2023-06-22T06:37:44;20.90;99.90
3648;DHT22;1840;48.892;15.312;2023-06-22T06:40:13;20.90;99.90
3648;DHT22;1840;48.892;15.312;2023-06-22T06:42:44;21.10;99.90
3648;DHT22;1840;48.892;15.312;2023-06-22T06:45:15;21.50;99.90
3648;DHT22;1840;48.892;15.312;2023-06-22T06:47:43;21.70;99.90
3648;DHT22;1840;48.892;15.312;2023-06-22T06:50:12;21.80;99.90
3648;DHT22;1840;48.892;15.312;2023-06-22T06:52:40;22.20;99.90
3648;DHT22;1840;48.892;15.312;2023-06-22T06:55:09;22.30;99.90
3648;DHT22;1840;48.892;15.312;2023-06-22T06:57:39;22.40;99.50
3648;DHT22;1840;48.892;15.312;2023-06-22T07:00:11;22.60;99.10
3648;DHT22;1840;48.892;15.312;2023-06-22T07:02:43;23.10;98.10
3648;DHT22;1840;48.892;15.312;2023-06-22T07:05:12;23.20;97.80
3648;DHT22;1840;48.892;15.312;2023-06-22T07:07:40;22.90;98.50
3648;DHT22;1840;48.892;15.312;2023-06-22T07:10:10;23.30;98.20
3648;DHT22;1840;48.892;15.312;2023-06-22T07:12:40;23.30;97.70
3648;DHT22;1840;48.892;15.312;2023-06-22T07:15:11;23.20;97.20
3648;DHT22;1840;48.892;15.312;2023-06-22T07:17:41;23.30;97.50
3648;DHT22;1840;48.892;15.312;2023-06-22T07:20:10;23.70;97.10
3648;DHT22;1840;48.892;15.312;2023-06-22T07:22:39;23.80;96.70
3648;DHT22;1840;48.892;15.312;2023-06-22T07:25:08;23.60;96.80
3648;DHT22;1840;48.892;15.312;2023-06-22T07:27:37;23.70;96.70
3648;DHT22;1840;48.892;15.312;2023-06-22T07:30:08;23.90;96.60
3648;DHT22;1840;48.892;15.312;2023-06-22T07:32:37;23.60;96.90
3648;DHT22;1840;48.892;15.312;2023-06-22T07:35:06;23.90;97.00
3648;DHT22;1840;48.892;15.312;2023-06-22T07:37:34;24.10;96.60
3648;DHT22;1840;48.892;15.312;2023-06-22T07:40:05;24.20;96.70
3648;DHT22;1840;48.892;15.312;2023-06-22T07:42:34;24.40;96.60
3648;DHT22;1840;48.892;15.312;2023-06-22T07:45:03;24.50;96.30
3648;DHT22;1840;48.892;15.312;2023-06-22T07:47:31;24.60;96.10
3648;DHT22;1840;48.892;15.312;2023-06-22T07:50:04;24.60;96.40
3648;DHT22;1840;48.892;15.312;2023-06-22T07:52:33;24.60;96.70
3648;DHT22;1840;48.892;15.312;2023-06-22T07:55:01;24.70;96.10
3648;DHT22;1840;48.892;15.312;2023-06-22T07:57:30;24.80;96.10
3648;DHT22;1840;48.892;15.312;2023-06-22T08:00:03;24.80;96.20
3648;DHT22;1840;48.892;15.312;2023-06-22T08:02:38;24.90;95.70
3648;DHT22;1840;48.892;15.312;2023-06-22T08:05:08;24.90;95.10
3648;DHT22;1840;48.892;15.312;2023-06-22T08:07:48;24.80;95.40
3648;DHT22;1840;48.892;15.312;2023-06-22T08:10:17;24.60;96.00
3648;DHT22;1840;48.892;15.312;2023-06-22T08:12:45;24.80;96.20
3648;DHT22;1840;48.892;15.312;2023-06-22T08:15:13;25.00;95.80
3648;DHT22;1840;48.892;15.312;2023-06-22T08:17:41;25.10;95.60
3648;DHT22;1840;48.892;15.312;2023-06-22T08:20:11;25.20;95.20
3648;DHT22;1840;48.892;15.312;2023-06-22T08:22:40;25.30;95.30
3648;DHT22;1840;48.892;15.312;2023-06-22T08:25:09;25.40;94.60
3648;DHT22;1840;48.892;15.312;2023-06-22T08:27:37;25.40;94.20
3648;DHT22;1840;48.892;15.312;2023-06-22T08:30:06;25.30;94.40
3648;DHT22;1840;48.892;15.312;2023-06-22T08:32:35;25.20;94.30
3648;DHT22;1840;48.892;15.312;2023-06-22T08:35:04;25.50;94.30
3648;DHT22;1840;48.892;15.312;2023-06-22T08:37:35;25.50;93.80
3648;DHT22;1840;48.892;15.312;2023-06-22T08:40:05;25.50;93.90
3648;DHT22;1840;48.892;15.312;2023-06-22T08:42:35;25.60;94.00
3648;DHT22;1840;48.892;15.312;2023-06-22T08:45:03;25.40;93.90
3648;DHT22;1840;48.892;15.312;2023-06-22T08:47:32;25.50;93.60
3648;DHT22;1840;48.892;15.312;2023-06-22T08:50:00;25.60;93.80
3648;DHT22;1840;48.892;15.312;2023-06-22T08:52:29;25.50;94.00
3648;DHT22;1840;48.892;15.312;2023-06-22T08:54:59;25.60;94.10
3648;DHT22;1840;48.892;15.312;2023-06-22T08:57:27;25.80;94.20
3648;DHT22;1840;48.892;15.312;2023-06-22T08:59:55;25.50;92.70
3648;DHT22;1840;48.892;15.312;2023-06-22T09:02:27;25.00;93.30
3648;DHT22;1840;48.892;15.312;2023-06-22T09:04:58;24.90;94.00
3648;DHT22;1840;48.892;15.312;2023-06-22T09:07:27;25.00;93.70
3648;DHT22;1840;48.892;15.312;2023-06-22T09:09:55;25.00;93.50
3648;DHT22;1840;48.892;15.312;2023-06-22T09:12:25;25.10;94.00
3648;DHT22;1840;48.892;15.312;2023-06-22T09:14:54;25.30;94.30
3648;DHT22;1840;48.892;15.312;2023-06-22T09:17:22;25.40;94.20
3648;DHT22;1840;48.892;15.312;2023-06-22T09:19:50;25.20;93.80
3648;DHT22;1840;48.892;15.312;2023-06-22T09:22:18;25.40;93.90
3648;DHT22;1840;48.892;15.312;2023-06-22T09:24:46;25.70;93.30
3648;DHT22;1840;48.892;15.312;2023-06-22T09:27:15;26.00;93.30
3648;DHT22;1840;48.892;15.312;2023-06-22T09:29:44;26.10;93.40
3648;DHT22;1840;48.892;15.312;2023-06-22T09:32:13;26.20;93.30
3648;DHT22;1840;48.892;15.312;2023-06-22T09:34:41;26.10;92.90
3648;DHT22;1840;48.892;15.312;2023-06-22T09:37:09;25.60;92.90
3648;DHT22;1840;48.892;15.312;2023-06-22T09:39:37;25.20;92.50
3648;DHT22;1840;48.892;15.312;2023-06-22T09:42:06;25.20;93.10
3648;DHT22;1840;48.892;15.312;2023-06-22T09:44:34;25.40;92.70
3648;DHT22;1840;48.892;15.312;2023-06-22T09:47:04;25.70;93.20
3648;DHT22;1840;48.892;15.312;2023-06-22T09:49:32;26.00;93.50
3648;DHT22;1840;48.892;15.312;2023-06-22T09:52:13;25.90;92.80
3648;DHT22;1840;48.892;15.312;2023-06-22T09:54:41;25.80;92.70
3648;DHT22;1840;48.892;15.312;2023-06-22T09:57:09;26.00;92.40
3648;DHT22;1840;48.892;15.312;2023-06-22T09:59:38;26.00;92.70
3648;DHT22;1840;48.892;15.312;2023-06-22T10:02:08;26.00;91.80
3648;DHT22;1840;48.892;15.312;2023-06-22T10:04:37;25.70;92.00
3648;DHT22;1840;48.892;15.312;2023-06-22T10:07:06;25.50;92.00
3648;DHT22;1840;48.892;15.312;2023-06-22T10:09:34;25.50;92.40
3648;DHT22;1840;48.892;15.312;2023-06-22T10:12:02;25.10;93.10
3648;DHT22;1840;48.892;15.312;2023-06-22T10:14:31;25.30;92.90
3648;DHT22;1840;48.892;15.312;2023-06-22T10:16:59;25.60;93.10
3648;DHT22;1840;48.892;15.312;2023-06-22T10:19:28;25.80;92.40
3648;DHT22;1840;48.892;15.312;2023-06-22T10:21:56;26.10;93.00
3648;DHT22;1840;48.892;15.312;2023-06-22T10:24:24;26.10;92.80
3648;DHT22;1840;48.892;15.312;2023-06-22T10:26:52;26.20;92.70
3648;DHT22;1840;48.892;15.312;2023-06-22T10:29:20;26.40;92.90
3648;DHT22;1840;48.892;15.312;2023-06-22T10:31:49;26.60;92.40
3648;DHT22;1840;48.892;15.312;2023-06-22T10:34:17;26.40;92.10
3648;DHT22;1840;48.892;15.312;2023-06-22T10:36:46;26.50;92.40
3648;DHT22;1840;48.892;15.312;2023-06-22T10:39:15;26.30;92.40
3648;DHT22;1840;48.892;15.312;2023-06-22T10:41:43;26.50;92.80
3648;DHT22;1840;48.892;15.312;2023-06-22T10:44:12;26.70;92.20
3648;DHT22;1840;48.892;15.312;2023-06-22T10:46:40;26.80;92.70
3648;DHT22;1840;48.892;15.312;2023-06-22T10:49:08;27.00;92.80
3648;DHT22;1840;48.892;15.312;2023-06-22T10:51:36;26.90;92.50
3648;DHT22;1840;48.892;15.312;2023-06-22T10:54:05;26.90;92.40
3648;DHT22;1840;48.892;15.312;2023-06-22T10:56:34;27.00;92.10
3648;DHT22;1840;48.892;15.312;2023-06-22T10:59:02;26.80;92.20
3648;DHT22;1840;48.892;15.312;2023-06-22T11:01:30;26.30;91.80
3648;DHT22;1840;48.892;15.312;2023-06-22T11:04:03;26.10;91.30
3648;DHT22;1840;48.892;15.312;2023-06-22T11:06:31;25.70;91.70
3648;DHT22;1840;48.892;15.312;2023-06-22T11:08:59;26.00;92.20
3648;DHT22;1840;48.892;15.312;2023-06-22T11:11:50;26.10;90.60
3648;DHT22;1840;48.892;15.312;2023-06-22T11:14:21;25.90;91.20
3648;DHT22;1840;48.892;15.312;2023-06-22T11:16:49;25.90;91.40
3648;DHT22;1840;48.892;15.312;2023-06-22T11:19:18;26.20;91.00
3648;DHT22;1840;48.892;15.312;2023-06-22T11:21:46;26.20;90.90
3648;DHT22;1840;48.892;15.312;2023-06-22T11:24:14;26.20;90.80
3648;DHT22;1840;48.892;15.312;2023-06-22T11:26:43;26.10;90.70
3648;DHT22;1840;48.892;15.312;2023-06-22T11:29:12;26.00;88.00
3648;DHT22;1840;48.892;15.312;2023-06-22T11:32:02;25.80;90.80
3648;DHT22;1840;48.892;15.312;2023-06-22T11:34:30;25.80;91.30
3648;DHT22;1840;48.892;15.312;2023-06-22T11:36:59;26.20;90.90
3648;DHT22;1840;48.892;15.312;2023-06-22T11:39:27;26.20;90.50
3648;DHT22;1840;48.892;15.312;2023-06-22T11:42:08;26.40;90.80
3648;DHT22;1840;48.892;15.312;2023-06-22T11:44:38;26.40;89.40
3648;DHT22;1840;48.892;15.312;2023-06-22T11:47:06;26.30;89.50
3648;DHT22;1840;48.892;15.312;2023-06-22T11:49:34;26.50;90.40
3648;DHT22;1840;48.892;15.312;2023-06-22T11:52:02;26.50;89.70
3648;DHT22;1840;48.892;15.312;2023-06-22T11:54:31;26.50;90.30
3648;DHT22;1840;48.892;15.312;2023-06-22T11:56:59;26.80;90.40
3648;DHT22;1840;48.892;15.312;2023-06-22T11:59:27;26.90;90.70
3648;DHT22;1840;48.892;15.312;2023-06-22T12:01:57;26.50;91.10
3648;DHT22;1840;48.892;15.312;2023-06-22T12:04:26;26.40;91.30
3648;DHT22;1840;48.892;15.312;2023-06-22T12:06:54;26.60;90.90
3648;DHT22;1840;48.892;15.312;2023-06-22T12:09:22;26.90;91.20
3648;DHT22;1840;48.892;15.312;2023-06-22T12:11:50;27.20;91.00
3648;DHT22;1840;48.892;15.312;2023-06-22T12:14:18;26.70;91.10
3648;DHT22;1840;48.892;15.312;2023-06-22T12:16:46;26.50;91.60
3648;DHT22;1840;48.892;15.312;2023-06-22T12:19:16;26.40;91.70
3648;DHT22;1840;48.892;15.312;2023-06-22T12:21:44;26.50;91.20
3648;DHT22;1840;48.892;15.312;2023-06-22T12:24:13;26.80;91.10
3648;DHT22;1840;48.892;15.312;2023-06-22T12:26:41;27.00;91.00
3648;DHT22;1840;48.892;15.312;2023-06-22T12:29:09;27.00;91.10
3648;DHT22;1840;48.892;15.312;2023-06-22T12:31:37;26.60;91.20
3648;DHT22;1840;48.892;15.312;2023-06-22T12:34:06;26.30;91.30
3648;DHT22;1840;48.892;15.312;2023-06-22T12:36:36;26.60;91.50
3648;DHT22;1840;48.892;15.312;2023-06-22T12:39:04;26.80;91.30
3648;DHT22;1840;48.892;15.312;2023-06-22T12:41:32;26.50;90.90
3648;DHT22;1840;48.892;15.312;2023-06-22T12:44:00;26.70;91.10
3648;DHT22;1840;48.892;15.312;2023-06-22T12:46:28;26.50;90.90
3648;DHT22;1840;48.892;15.312;2023-06-22T12:48:57;26.30;90.40
3648;DHT22;1840;48.892;15.312;2023-06-22T12:51:27;26.20;91.10
3648;DHT22;1840;48.892;15.312;2023-06-22T12:53:57;26.40;91.30
3648;DHT22;1840;48.892;15.312;2023-06-22T12:56:25;26.40;90.70
3648;DHT22;1840;48.892;15.312;2023-06-22T12:58:53;26.40;90.70
3648;DHT22;1840;48.892;15.312;2023-06-22T13:01:21;26.60;91.00
3648;DHT22;1840;48.892;15.312;2023-06-22T13:03:50;26.90;90.70
3648;DHT22;1840;48.892;15.312;2023-06-22T13:06:18;26.80;90.60
3648;DHT22;1840;48.892;15.312;2023-06-22T13:08:46;27.00;90.70
3648;DHT22;1840;48.892;15.312;2023-06-22T13:11:18;26.70;90.70
3648;DHT22;1840;48.892;15.312;2023-06-22T13:13:46;26.80;90.90
3648;DHT22;1840;48.892;15.312;2023-06-22T13:16:14;27.10;91.70
3648;DHT22;1840;48.892;15.312;2023-06-22T13:18:42;27.00;90.40
3648;DHT22;1840;48.892;15.312;2023-06-22T13:21:11;26.90;91.10
3648;DHT22;1840;48.892;15.312;2023-06-22T13:23:39;26.90;91.40
3648;DHT22;1840;48.892;15.312;2023-06-22T13:26:07;26.90;91.30
3648;DHT22;1840;48.892;15.312;2023-06-22T13:28:36;26.90;91.40
3648;DHT22;1840;48.892;15.312;2023-06-22T13:31:05;27.00;91.70
3648;DHT22;1840;48.892;15.312;2023-06-22T13:33:33;26.70;91.50
3648;DHT22;1840;48.892;15.312;2023-06-22T13:36:01;26.70;91.90
3648;DHT22;1840;48.892;15.312;2023-06-22T13:38:30;26.80;92.10
3648;DHT22;1840;48.892;15.312;2023-06-22T13:40:59;27.00;91.90
3648;DHT22;1840;48.892;15.312;2023-06-22T13:43:28;26.90;92.00
3648;DHT22;1840;48.892;15.312;2023-06-22T13:45:57;26.70;92.30
3648;DHT22;1840;48.892;15.312;2023-06-22T13:48:25;26.70;92.40
3648;DHT22;1840;48.892;15.312;2023-06-22T13:50:55;27.00;92.40
3648;DHT22;1840;48.892;15.312;2023-06-22T13:53:24;26.70;92.20
3648;DHT22;1840;48.892;15.312;2023-06-22T13:55:52;26.60;92.40
3648;DHT22;1840;48.892;15.312;2023-06-22T13:58:20;26.90;92.80
3648;DHT22;1840;48.892;15.312;2023-06-22T14:00:48;26.90;92.80
3648;DHT22;1840;48.892;15.312;2023-06-22T14:03:17;26.90;92.30
3648;DHT22;1840;48.892;15.312;2023-06-22T14:05:46;26.90;92.50
3648;DHT22;1840;48.892;15.312;2023-06-22T14:08:14;26.50;92.70
3648;DHT22;1840;48.892;15.312;2023-06-22T14:11:02;26.30;93.00
3648;DHT22;1840;48.892;15.312;2023-06-22T14:13:34;26.10;93.20
3648;DHT22;1840;48.892;15.312;2023-06-22T14:16:03;26.10;93.30
3648;DHT22;1840;48.892;15.312;2023-06-22T14:18:33;26.10;93.40
3648;DHT22;1840;48.892;15.312;2023-06-22T14:21:02;26.30;93.20
3648;DHT22;1840;48.892;15.312;2023-06-22T14:23:30;26.40;93.50
3648;DHT22;1840;48.892;15.312;2023-06-22T14:25:58;26.50;93.20
3648;DHT22;1840;48.892;15.312;2023-06-22T14:28:26;26.40;93.10
3648;DHT22;1840;48.892;15.312;2023-06-22T14:30:55;26.40;93.10
3648;DHT22;1840;48.892;15.312;2023-06-22T14:33:24;26.10;92.60
3648;DHT22;1840;48.892;15.312;2023-06-22T14:35:53;26.30;92.40
3648;DHT22;1840;48.892;15.312;2023-06-22T14:38:21;26.50;93.00
3648;DHT22;1840;48.892;15.312;2023-06-22T14:40:49;26.30;93.00
3648;DHT22;1840;48.892;15.312;2023-06-22T14:43:37;26.30;93.40
3648;DHT22;1840;48.892;15.312;2023-06-22T14:46:06;26.40;93.40
3648;DHT22;1840;48.892;15.312;2023-06-22T14:48:34;26.50;93.40
3648;DHT22;1840;48.892;15.312;2023-06-22T14:51:07;26.50;93.20
3648;DHT22;1840;48.892;15.312;2023-06-22T14:53:36;26.40;93.20
3648;DHT22;1840;48.892;15.312;2023-06-22T14:56:05;26.20;93.40
3648;DHT22;1840;48.892;15.312;2023-06-22T14:58:33;26.10;92.80
3648;DHT22;1840;48.892;15.312;2023-06-22T15:01:02;25.90;93.10
3648;DHT22;1840;48.892;15.312;2023-06-22T15:03:31;26.00;93.30
3648;DHT22;1840;48.892;15.312;2023-06-22T15:06:00;26.30;93.00
3648;DHT22;1840;48.892;15.312;2023-06-22T15:08:30;26.50;92.90
3648;DHT22;1840;48.892;15.312;2023-06-22T15:10:59;26.30;93.10
3648;DHT22;1840;48.892;15.312;2023-06-22T15:13:29;26.20;93.10
3648;DHT22;1840;48.892;15.312;2023-06-22T15:15:59;26.10;93.10
3648;DHT22;1840;48.892;15.312;2023-06-22T15:18:27;26.10;93.30
3648;DHT22;1840;48.892;15.312;2023-06-22T15:20:56;26.20;93.40
3648;DHT22;1840;48.892;15.312;2023-06-22T15:23:25;26.40;93.40
3648;DHT22;1840;48.892;15.312;2023-06-22T15:25:56;26.20;93.00
3648;DHT22;1840;48.892;15.312;2023-06-22T15:28:25;26.00;92.90
3648;DHT22;1840;48.892;15.312;2023-06-22T15:30:53;25.90;93.00
3648;DHT22;1840;48.892;15.312;2023-06-22T15:33:21;25.90;92.90
3648;DHT22;1840;48.892;15.312;2023-06-22T15:35:49;26.10;93.10
3648;DHT22;1840;48.892;15.312;2023-06-22T15:38:17;26.20;93.40
3648;DHT22;1840;48.892;15.312;2023-06-22T15:40:45;26.30;93.50
3648;DHT22;1840;48.892;15.312;2023-06-22T15:43:14;26.60;93.20
3648;DHT22;1840;48.892;15.312;2023-06-22T15:45:43;26.70;93.00
3648;DHT22;1840;48.892;15.312;2023-06-22T15:48:11;26.90;92.90
3648;DHT22;1840;48.892;15.312;2023-06-22T15:50:39;27.10;92.90
3648;DHT22;1840;48.892;15.312;2023-06-22T15:53:10;26.90;92.50
3648;DHT22;1840;48.892;15.312;2023-06-22T15:55:38;27.00;92.60
3648;DHT22;1840;48.892;15.312;2023-06-22T15:58:07;27.00;92.80